createdAt,value
2018-09-17T00:01:53.580Z,14.00
2018-09-17T00:04:22.064Z,14.00
2018-09-17T00:06:50.465Z,14.10
2018-09-17T00:09:18.876Z,14.00
2018-09-17T00:11:47.329Z,14.00
2018-09-17T00:14:15.717Z,14.00
2018-09-17T00:16:44.016Z,13.90
2018-09-17T00:19:12.544Z,14.00
2018-09-17T00:21:40.884Z,14.00
2018-09-17T00:24:09.305Z,14.00
2018-09-17T00:26:37.644Z,14.00
2018-09-17T00:29:06.177Z,13.90
2018-09-17T00:31:34.492Z,13.90
2018-09-17T00:34:02.947Z,13.90
2018-09-17T00:36:31.253Z,13.90
2018-09-17T00:38:59.713Z,13.90
2018-09-17T00:41:27.985Z,13.90
2018-09-17T00:43:56.407Z,13.80
2018-09-17T00:46:24.771Z,13.80
2018-09-17T00:48:53.135Z,13.80
2018-09-17T00:51:21.540Z,13.70
2018-09-17T00:53:50.856Z,13.70
2018-09-17T00:56:19.200Z,13.70
2018-09-17T00:58:48.764Z,13.70
2018-09-17T01:01:17.111Z,13.70
2018-09-17T01:03:45.471Z,13.70
2018-09-17T01:06:13.872Z,13.60
2018-09-17T01:08:42.300Z,13.70
2018-09-17T01:11:10.618Z,13.70
2018-09-17T01:13:38.989Z,13.70
2018-09-17T01:16:07.445Z,13.70
2018-09-17T01:18:35.765Z,13.60
2018-09-17T01:21:04.103Z,13.60
2018-09-17T01:23:32.408Z,13.60
2018-09-17T01:26:00.765Z,13.60
2018-09-17T01:28:29.089Z,13.50
2018-09-17T01:30:57.415Z,13.50
2018-09-17T01:33:25.693Z,13.40
2018-09-17T01:35:54.041Z,13.40
2018-09-17T01:38:22.404Z,13.40
2018-09-17T01:40:50.812Z,13.40
2018-09-17T01:43:19.257Z,13.40
2018-09-17T01:45:47.717Z,13.40
2018-09-17T01:48:16.081Z,13.30
2018-09-17T01:50:44.495Z,13.30
2018-09-17T01:53:12.879Z,13.30
2018-09-17T01:55:41.209Z,13.30
2018-09-17T01:58:09.575Z,13.20
2018-09-17T02:00:37.872Z,13.20
2018-09-17T02:03:07.210Z,13.20
2018-09-17T02:05:35.595Z,13.20
2018-09-17T02:08:04.011Z,13.20
2018-09-17T02:10:32.312Z,13.20
2018-09-17T02:13:00.693Z,13.20
2018-09-17T02:15:28.970Z,13.20
2018-09-17T02:17:57.364Z,13.30
2018-09-17T02:20:25.758Z,13.30
2018-09-17T02:22:54.125Z,13.30
2018-09-17T02:25:22.488Z,13.30
2018-09-17T02:27:50.920Z,13.30
2018-09-17T02:30:19.279Z,13.30
2018-09-17T02:32:47.645Z,13.30
2018-09-17T02:35:16.035Z,13.20
2018-09-17T02:37:44.370Z,13.30
2018-09-17T02:40:16.274Z,13.20
2018-09-17T02:42:46.812Z,13.20
2018-09-17T02:45:15.162Z,13.20
2018-09-17T02:47:43.545Z,13.20
2018-09-17T02:50:11.911Z,13.20
2018-09-17T02:52:40.354Z,13.20
2018-09-17T02:55:09.036Z,13.20
2018-09-17T02:57:37.851Z,13.20
2018-09-17T03:00:07.063Z,13.20
2018-09-17T03:02:35.502Z,13.20
2018-09-17T03:05:03.943Z,13.10
2018-09-17T03:07:32.293Z,13.10
2018-09-17T03:10:00.592Z,13.10
2018-09-17T03:12:28.992Z,13.10
2018-09-17T03:18:01.259Z,13.00
2018-09-17T03:20:29.878Z,13.00
2018-09-17T03:22:58.268Z,13.00
2018-09-17T03:25:27.277Z,12.90
2018-09-17T03:27:55.802Z,12.90
2018-09-17T03:30:24.191Z,12.90
2018-09-17T03:32:52.563Z,13.00
2018-09-17T03:35:20.909Z,13.00
2018-09-17T03:37:49.619Z,13.00
2018-09-17T03:40:18.252Z,13.00
2018-09-17T03:42:46.660Z,13.00
2018-09-17T03:45:15.091Z,13.00
2018-09-17T03:47:43.417Z,13.00
2018-09-17T03:50:11.883Z,12.90
2018-09-17T03:52:40.289Z,12.90
2018-09-17T03:55:08.602Z,13.00
2018-09-17T03:57:36.959Z,13.00
2018-09-17T04:00:05.361Z,13.00
2018-09-17T04:02:33.693Z,13.00
2018-09-17T04:05:02.112Z,13.00
2018-09-17T04:07:30.472Z,13.00
2018-09-17T04:09:58.843Z,13.00
2018-09-17T04:12:27.205Z,13.00
2018-09-17T04:14:55.637Z,12.90
2018-09-17T04:17:24.013Z,12.90
2018-09-17T04:19:52.353Z,12.90
2018-09-17T04:22:20.736Z,12.80
2018-09-17T04:24:49.128Z,12.80
2018-09-17T04:27:17.470Z,12.80
2018-09-17T04:29:45.854Z,12.80
2018-09-17T04:32:14.257Z,12.80
2018-09-17T04:34:42.601Z,12.80
2018-09-17T04:37:10.976Z,12.90
2018-09-17T04:39:39.316Z,12.90
2018-09-17T04:42:07.684Z,12.80
2018-09-17T04:44:42.609Z,12.70
2018-09-17T04:47:11.093Z,12.70
2018-09-17T04:49:39.435Z,12.70
2018-09-17T04:52:07.844Z,12.70
2018-09-17T04:54:36.248Z,12.70
2018-09-17T04:57:04.614Z,12.70
2018-09-17T04:59:32.975Z,12.70
2018-09-17T05:02:01.532Z,12.70
2018-09-17T05:04:29.801Z,12.70
2018-09-17T05:06:58.185Z,12.60
2018-09-17T05:09:26.568Z,12.60
2018-09-17T05:11:54.961Z,12.60
2018-09-17T05:14:23.349Z,12.60
2018-09-17T05:16:51.743Z,12.60
2018-09-17T05:19:20.106Z,12.60
2018-09-17T05:21:48.571Z,12.60
2018-09-17T05:24:16.952Z,12.60
2018-09-17T05:26:45.397Z,12.70
2018-09-17T05:29:13.745Z,12.70
2018-09-17T05:31:42.117Z,12.80
2018-09-17T05:34:10.503Z,12.90
2018-09-17T05:36:38.868Z,12.90
2018-09-17T05:39:09.185Z,12.90
2018-09-17T05:41:37.604Z,12.90
2018-09-17T05:44:05.993Z,12.90
2018-09-17T05:46:34.546Z,12.90
2018-09-17T05:49:03.230Z,13.00
2018-09-17T05:51:31.634Z,13.00
2018-09-17T05:54:00.003Z,13.10
2018-09-17T05:56:28.366Z,13.10
2018-09-17T05:58:56.748Z,13.20
2018-09-17T06:01:25.199Z,13.20
2018-09-17T06:03:54.340Z,13.30
2018-09-17T06:06:22.716Z,13.40
2018-09-17T06:08:51.134Z,13.50
2018-09-17T06:11:19.498Z,13.60
2018-09-17T06:13:48.049Z,13.80
2018-09-17T06:16:16.431Z,13.90
2018-09-17T06:18:44.789Z,14.10
2018-09-17T06:21:13.225Z,14.30
2018-09-17T06:23:41.572Z,14.50
2018-09-17T06:26:09.932Z,14.70
2018-09-17T06:28:38.455Z,14.90
2018-09-17T06:31:06.831Z,15.40
2018-09-17T06:33:35.337Z,15.60
2018-09-17T06:36:03.705Z,16.00
2018-09-17T06:38:32.012Z,16.20
2018-09-17T06:41:00.312Z,16.50
2018-09-17T06:43:28.689Z,16.50
2018-09-17T06:45:57.099Z,16.70
2018-09-17T06:48:25.486Z,16.70
2018-09-17T06:50:53.840Z,16.60
2018-09-17T06:53:22.326Z,16.60
2018-09-17T06:55:50.708Z,16.50
2018-09-17T06:58:19.106Z,16.70
2018-09-17T07:00:47.424Z,16.80
2018-09-17T07:03:15.781Z,17.20
2018-09-17T07:05:44.120Z,17.40
2018-09-17T07:08:12.424Z,17.20
2018-09-17T07:10:40.721Z,17.50
2018-09-17T07:13:09.080Z,17.70
2018-09-17T07:15:37.381Z,17.90
2018-09-17T07:18:05.963Z,18.10
2018-09-17T07:20:34.261Z,18.30
2018-09-17T07:23:02.614Z,18.20
2018-09-17T07:25:31.032Z,18.30
2018-09-17T07:27:59.364Z,18.50
2018-09-17T07:30:27.712Z,18.40
2018-09-17T07:32:56.071Z,18.90
2018-09-17T07:35:24.495Z,19.40
2018-09-17T07:37:52.820Z,19.70
2018-09-17T07:40:21.646Z,19.80
2018-09-17T07:42:49.968Z,20.00
2018-09-17T07:45:18.395Z,20.10
2018-09-17T07:47:46.811Z,20.40
2018-09-17T07:50:15.174Z,20.70
2018-09-17T07:52:43.510Z,20.90
2018-09-17T07:55:11.891Z,20.90
2018-09-17T07:57:40.296Z,20.90
2018-09-17T08:00:08.658Z,21.20
2018-09-17T08:02:37.020Z,21.60
2018-09-17T08:05:05.489Z,21.90
2018-09-17T08:07:33.890Z,22.20
2018-09-17T08:10:02.271Z,22.00
2018-09-17T08:12:30.660Z,21.60
2018-09-17T08:14:59.014Z,21.60
2018-09-17T08:17:27.401Z,21.80
2018-09-17T08:19:55.851Z,22.00
2018-09-17T08:22:24.307Z,21.30
2018-09-17T08:24:52.601Z,21.10
2018-09-17T08:27:21.018Z,21.50
2018-09-17T08:29:49.364Z,22.10
2018-09-17T08:32:17.776Z,22.30
2018-09-17T08:34:46.173Z,22.30
2018-09-17T08:37:14.513Z,22.80
2018-09-17T08:39:42.905Z,22.90
2018-09-17T08:42:11.272Z,22.50
2018-09-17T08:44:39.678Z,22.20
2018-09-17T08:47:08.017Z,22.40
2018-09-17T08:49:36.442Z,22.70
2018-09-17T08:52:04.856Z,22.90
2018-09-17T08:54:37.430Z,22.90
2018-09-17T08:57:10.138Z,23.10
2018-09-17T08:59:43.998Z,23.60
2018-09-17T09:02:20.625Z,23.70
2018-09-17T09:04:53.909Z,23.30
2018-09-17T09:07:28.062Z,23.70
2018-09-17T09:10:01.794Z,24.10
2018-09-17T09:12:35.625Z,24.70
2018-09-17T09:15:09.391Z,25.10
2018-09-17T09:17:37.812Z,25.30
2018-09-17T09:20:06.186Z,25.50
2018-09-17T09:22:34.549Z,25.70
2018-09-17T09:25:03.028Z,25.90
2018-09-17T09:27:31.485Z,26.10
2018-09-17T09:29:59.861Z,26.10
2018-09-17T09:32:28.255Z,26.10
2018-09-17T09:34:56.612Z,26.20
2018-09-17T09:37:25.022Z,26.30
2018-09-17T09:39:53.388Z,26.50
2018-09-17T09:42:21.670Z,26.60
2018-09-17T09:44:50.066Z,26.80
2018-09-17T09:47:19.411Z,26.90
2018-09-17T09:49:47.916Z,27.10
2018-09-17T09:52:16.286Z,27.10
2018-09-17T09:54:44.638Z,27.20
2018-09-17T09:57:13.968Z,27.30
2018-09-17T09:59:42.389Z,27.40
2018-09-17T10:02:17.077Z,27.40
2018-09-17T10:04:47.403Z,27.50
2018-09-17T10:07:15.782Z,27.50
2018-09-17T10:09:49.362Z,27.40
2018-09-17T10:12:23.089Z,27.60
2018-09-17T10:14:56.964Z,27.80
2018-09-17T10:17:30.681Z,27.80
2018-09-17T10:19:59.078Z,27.90
2018-09-17T10:22:27.456Z,28.00
2018-09-17T10:24:55.793Z,28.00
2018-09-17T10:27:24.124Z,27.90
2018-09-17T10:29:52.589Z,27.80
2018-09-17T10:32:20.905Z,28.00
2018-09-17T10:34:49.255Z,28.10
2018-09-17T10:37:17.692Z,27.80
2018-09-17T10:39:46.141Z,27.50
2018-09-17T10:42:14.449Z,27.50
2018-09-17T10:44:42.865Z,27.50
2018-09-17T10:47:11.349Z,27.70
2018-09-17T10:49:39.751Z,27.80
2018-09-17T10:52:08.190Z,27.70
2018-09-17T10:54:36.613Z,27.70
2018-09-17T10:57:06.169Z,27.80
2018-09-17T10:59:34.563Z,27.90
2018-09-17T11:02:02.979Z,27.90
2018-09-17T11:04:32.361Z,27.90
2018-09-17T11:07:02.688Z,27.80
2018-09-17T11:09:31.034Z,27.80
2018-09-17T11:11:59.450Z,27.90
2018-09-17T11:14:27.799Z,27.90
2018-09-17T11:16:56.217Z,27.90
2018-09-17T11:19:25.583Z,27.50
2018-09-17T11:21:53.956Z,27.60
2018-09-17T11:24:22.404Z,27.60
2018-09-17T11:26:51.733Z,27.50
2018-09-17T11:29:20.141Z,27.60
2018-09-17T11:31:50.541Z,27.60
2018-09-17T11:34:18.949Z,27.50
2018-09-17T11:36:50.401Z,27.60
2018-09-17T11:39:19.861Z,27.70
2018-09-17T11:41:49.224Z,27.70
2018-09-17T11:44:18.592Z,27.60
2018-09-17T11:46:47.257Z,27.60
2018-09-17T11:49:15.681Z,27.60
2018-09-17T11:51:44.045Z,27.60
2018-09-17T11:54:12.582Z,27.60
2018-09-17T11:56:47.651Z,27.30
2018-09-17T11:59:16.125Z,27.10
2018-09-17T12:01:53.051Z,27.10
2018-09-17T12:04:26.696Z,27.10
2018-09-17T12:07:00.556Z,27.10
2018-09-17T12:09:29.021Z,27.20
2018-09-17T12:11:57.407Z,27.00
2018-09-17T12:14:25.828Z,27.20
2018-09-17T12:16:54.168Z,27.30
2018-09-17T12:19:22.608Z,27.30
2018-09-17T12:21:51.020Z,27.30
2018-09-17T12:24:19.427Z,27.30
2018-09-17T12:26:47.943Z,27.30
2018-09-17T12:29:16.454Z,27.30
2018-09-17T12:31:44.854Z,27.40
2018-09-17T12:34:13.327Z,27.40
2018-09-17T12:36:41.782Z,27.40
2018-09-17T12:39:11.294Z,27.40
2018-09-17T12:41:42.906Z,27.50
2018-09-17T12:44:11.387Z,27.50
2018-09-17T12:46:39.746Z,27.40
2018-09-17T12:49:08.220Z,27.40
2018-09-17T12:51:36.688Z,27.40
2018-09-17T12:54:05.121Z,27.40
2018-09-17T12:56:33.521Z,27.40
2018-09-17T12:59:01.852Z,27.40
2018-09-17T13:01:30.176Z,27.40
2018-09-17T13:03:58.820Z,27.40
2018-09-17T13:06:27.177Z,27.40
2018-09-17T13:08:56.771Z,27.50
2018-09-17T13:11:25.170Z,27.60
2018-09-17T13:13:53.492Z,27.60
2018-09-17T13:16:21.871Z,27.70
2018-09-17T13:18:50.272Z,27.70
2018-09-17T13:21:18.861Z,27.60
2018-09-17T13:23:47.185Z,27.60
2018-09-17T13:26:15.485Z,27.60
2018-09-17T13:28:43.868Z,27.70
2018-09-17T13:31:12.248Z,27.80
2018-09-17T13:33:40.570Z,27.80
2018-09-17T13:36:08.934Z,27.70
2018-09-17T13:38:41.330Z,27.80
2018-09-17T13:41:11.125Z,27.80
2018-09-17T13:43:39.576Z,27.80
2018-09-17T13:46:08.964Z,27.70
2018-09-17T13:48:37.396Z,27.70
2018-09-17T13:51:06.674Z,27.60
2018-09-17T13:53:35.373Z,27.50
2018-09-17T13:56:03.995Z,27.50
2018-09-17T13:58:32.347Z,27.40
2018-09-17T14:01:00.685Z,27.40
2018-09-17T14:03:29.185Z,27.40
2018-09-17T14:05:57.532Z,27.20
2018-09-17T14:08:25.907Z,27.10
2018-09-17T14:10:54.275Z,27.10
2018-09-17T14:13:22.560Z,26.80
2018-09-17T14:15:56.172Z,26.80
2018-09-17T14:18:24.698Z,26.80
2018-09-17T14:20:53.012Z,26.80
2018-09-17T14:23:21.289Z,26.70
2018-09-17T14:25:49.580Z,26.50
2018-09-17T14:28:17.925Z,26.60
2018-09-17T14:30:46.362Z,26.70
2018-09-17T14:33:20.104Z,26.70
2018-09-17T14:35:48.424Z,26.70
2018-09-17T14:38:16.697Z,26.50
2018-09-17T14:40:45.015Z,26.50
2018-09-17T14:43:13.313Z,26.50
2018-09-17T14:45:41.894Z,26.50
2018-09-17T14:48:10.450Z,26.40
2018-09-17T14:50:38.840Z,26.50
2018-09-17T14:53:07.100Z,26.50
2018-09-17T14:55:35.410Z,26.50
2018-09-17T14:58:03.733Z,26.50
2018-09-17T15:00:32.009Z,26.50
2018-09-17T15:03:00.308Z,26.60
2018-09-17T15:05:28.616Z,26.60
2018-09-17T15:07:56.894Z,26.60
2018-09-17T15:10:25.382Z,26.60
2018-09-17T15:12:53.609Z,26.50
2018-09-17T15:15:21.921Z,26.50
2018-09-17T15:17:50.250Z,26.50
2018-09-17T15:20:18.636Z,26.40
2018-09-17T15:22:46.823Z,26.40
2018-09-17T15:25:15.331Z,26.40
2018-09-17T15:27:43.707Z,26.30
2018-09-17T15:30:12.208Z,26.30
2018-09-17T15:32:40.557Z,26.20
2018-09-17T15:35:08.943Z,26.20
2018-09-17T15:37:37.340Z,26.20
2018-09-17T15:40:06.428Z,26.20
2018-09-17T15:42:34.755Z,26.20
2018-09-17T15:45:03.130Z,26.10
2018-09-17T15:47:31.556Z,26.10
2018-09-17T15:49:59.954Z,26.00
2018-09-17T15:52:28.361Z,26.00
2018-09-17T15:54:56.678Z,26.00
2018-09-17T15:57:25.157Z,25.90
2018-09-17T15:59:53.575Z,25.90
2018-09-17T16:02:21.907Z,25.90
2018-09-17T16:04:50.310Z,25.90
2018-09-17T16:07:18.784Z,25.90
2018-09-17T16:09:47.321Z,25.80
2018-09-17T16:12:15.648Z,25.70
2018-09-17T16:14:44.126Z,25.70
2018-09-17T16:17:12.689Z,25.70
2018-09-17T16:19:40.988Z,25.60
2018-09-17T16:22:09.412Z,25.60
2018-09-17T16:24:37.757Z,25.60
2018-09-17T16:27:06.203Z,25.50
2018-09-17T16:29:34.552Z,25.50
2018-09-17T16:32:02.999Z,25.50
2018-09-17T16:34:31.390Z,25.50
2018-09-17T16:36:59.778Z,25.40
2018-09-17T16:39:28.117Z,25.30
2018-09-17T16:41:56.540Z,25.30
2018-09-17T16:44:24.963Z,25.30
2018-09-17T16:46:53.300Z,25.20
2018-09-17T16:49:21.630Z,25.10
2018-09-17T16:51:50.053Z,25.10
2018-09-17T16:54:26.031Z,25.10
2018-09-17T16:56:54.362Z,25.00
2018-09-17T16:59:22.971Z,24.90
2018-09-17T17:01:51.540Z,24.90
2018-09-17T17:04:19.897Z,24.80
2018-09-17T17:06:48.267Z,24.70
2018-09-17T17:09:16.765Z,24.60
2018-09-17T17:11:45.342Z,24.60
2018-09-17T17:14:13.685Z,24.50
2018-09-17T17:16:42.264Z,24.40
2018-09-17T17:19:10.735Z,24.30
2018-09-17T17:21:40.038Z,24.20
2018-09-17T17:24:08.440Z,24.10
2018-09-17T17:26:36.818Z,24.10
2018-09-17T17:29:05.173Z,23.90
2018-09-17T17:31:33.602Z,23.80
2018-09-17T17:34:02.142Z,23.70
2018-09-17T17:36:30.551Z,23.60
2018-09-17T17:38:58.845Z,23.50
2018-09-17T17:41:27.196Z,23.40
2018-09-17T17:43:55.582Z,23.30
2018-09-17T17:46:24.007Z,23.20
2018-09-17T17:48:52.270Z,23.10
2018-09-17T17:51:20.660Z,23.10
2018-09-17T17:53:49.057Z,22.90
2018-09-17T17:56:17.463Z,22.80
2018-09-17T17:58:45.864Z,22.70
2018-09-17T18:01:14.250Z,22.60
2018-09-17T18:03:42.461Z,22.50
2018-09-17T18:06:10.833Z,22.50
2018-09-17T18:08:39.265Z,22.40
2018-09-17T18:11:07.573Z,22.30
2018-09-17T18:13:35.982Z,22.20
2018-09-17T18:16:04.345Z,22.20
2018-09-17T18:18:32.735Z,22.10
2018-09-17T18:21:01.556Z,22.00
2018-09-17T18:23:29.928Z,21.90
2018-09-17T18:25:58.269Z,21.90
2018-09-17T18:28:26.688Z,21.80
2018-09-17T18:30:54.997Z,21.70
2018-09-17T18:33:23.352Z,21.60
2018-09-17T18:35:51.619Z,21.50
2018-09-17T18:38:19.996Z,21.40
2018-09-17T18:40:48.347Z,21.30
2018-09-17T18:43:16.673Z,21.20
2018-09-17T18:45:44.988Z,21.20
2018-09-17T18:48:13.357Z,21.10
2018-09-17T18:50:41.625Z,21.00
2018-09-17T18:53:09.977Z,21.00
2018-09-17T18:55:38.279Z,20.90
2018-09-17T18:58:06.599Z,20.90
2018-09-17T19:00:35.644Z,20.80
2018-09-17T19:03:03.986Z,20.70
2018-09-17T19:05:32.302Z,20.70
2018-09-17T19:08:00.597Z,20.60
2018-09-17T19:10:28.897Z,20.60
2018-09-17T19:12:57.502Z,20.50
2018-09-17T19:15:31.308Z,20.40
2018-09-17T19:18:06.396Z,20.30
2018-09-17T19:20:38.224Z,20.20
2018-09-17T19:23:13.339Z,20.20
2018-09-17T19:25:42.697Z,20.10
2018-09-17T19:28:16.554Z,20.00
2018-09-17T19:30:44.961Z,20.00
2018-09-17T19:33:13.338Z,19.90
2018-09-17T19:35:41.730Z,19.90
2018-09-17T19:38:15.601Z,19.80
2018-09-17T19:40:44.040Z,19.80
2018-09-17T19:43:12.417Z,19.70
2018-09-17T19:45:46.241Z,19.60
2018-09-17T19:48:14.556Z,19.50
2018-09-17T19:50:48.266Z,19.40
2018-09-17T19:53:16.598Z,19.40
2018-09-17T19:55:45.271Z,19.40
2018-09-17T19:58:18.829Z,19.30
2018-09-17T20:00:47.183Z,19.30
2018-09-17T20:03:15.532Z,19.30
2018-09-17T20:05:49.108Z,19.30
2018-09-17T20:08:17.453Z,19.20
2018-09-17T20:10:45.821Z,19.20
2018-09-17T20:13:14.149Z,19.20
2018-09-17T20:15:42.488Z,19.20
2018-09-17T20:18:17.334Z,19.10
2018-09-17T20:20:45.694Z,19.00
2018-09-17T20:23:14.072Z,18.90
2018-09-17T20:25:42.253Z,18.80
2018-09-17T20:28:10.576Z,18.70
2018-09-17T20:30:40.625Z,18.60
2018-09-17T20:33:08.963Z,18.60
2018-09-17T20:35:37.297Z,18.60
2018-09-17T20:38:05.671Z,18.50
2018-09-17T20:40:34.020Z,18.50
2018-09-17T20:43:02.530Z,18.50
2018-09-17T20:45:31.822Z,18.50
2018-09-17T20:48:00.181Z,18.50
2018-09-17T20:50:28.533Z,18.40
2018-09-17T20:52:56.841Z,18.40
2018-09-17T20:55:25.303Z,18.40
2018-09-17T20:57:53.584Z,18.30
2018-09-17T21:00:21.955Z,18.20
2018-09-17T21:02:51.182Z,18.20
2018-09-17T21:05:29.100Z,18.20
2018-09-17T21:07:57.431Z,18.10
2018-09-17T21:10:25.709Z,18.10
2018-09-17T21:12:54.242Z,18.00
2018-09-17T21:15:22.584Z,18.00
2018-09-17T21:17:51.040Z,17.90
2018-09-17T21:20:19.535Z,17.90
2018-09-17T21:22:47.935Z,17.80
2018-09-17T21:25:16.316Z,17.80
2018-09-17T21:27:44.675Z,17.70
2018-09-17T21:30:13.052Z,17.70
2018-09-17T21:32:41.456Z,17.70
2018-09-17T21:35:09.776Z,17.60
2018-09-17T21:37:43.801Z,17.60
2018-09-17T21:40:12.271Z,17.60
2018-09-17T21:42:40.613Z,17.50
2018-09-17T21:45:09.875Z,17.50
2018-09-17T21:47:38.160Z,17.40
2018-09-17T21:50:10.001Z,17.40
2018-09-17T21:52:38.334Z,17.40
2018-09-17T21:55:06.906Z,17.30
2018-09-17T21:57:35.253Z,17.30
2018-09-17T22:00:03.584Z,17.30
2018-09-17T22:02:31.944Z,17.30
2018-09-17T22:05:00.177Z,17.10
2018-09-17T22:07:28.515Z,17.10
2018-09-17T22:09:56.807Z,17.00
2018-09-17T22:12:25.912Z,17.00
2018-09-17T22:14:54.249Z,17.00
2018-09-17T22:17:22.578Z,16.90
2018-09-17T22:19:50.904Z,16.90
2018-09-17T22:22:19.169Z,16.80
2018-09-17T22:24:47.453Z,16.80
2018-09-17T22:27:15.761Z,16.80
2018-09-17T22:29:44.076Z,16.80
2018-09-17T22:32:12.454Z,16.80
2018-09-17T22:34:40.882Z,16.70
2018-09-17T22:37:09.169Z,16.70
2018-09-17T22:39:37.463Z,16.70
2018-09-17T22:42:05.822Z,16.70
2018-09-17T22:44:34.218Z,16.60
2018-09-17T22:47:02.908Z,16.60
2018-09-17T22:49:34.569Z,16.60
2018-09-17T22:52:06.675Z,16.50
2018-09-17T22:54:35.157Z,16.50
2018-09-17T22:57:03.464Z,16.50
2018-09-17T22:59:31.781Z,16.50
2018-09-17T23:02:00.072Z,16.40
2018-09-17T23:04:28.375Z,16.40
2018-09-17T23:06:56.712Z,16.40
2018-09-17T23:09:25.030Z,16.30
2018-09-17T23:11:53.366Z,16.30
2018-09-17T23:14:21.663Z,16.30
2018-09-17T23:16:49.985Z,16.30
2018-09-17T23:19:18.353Z,16.20
2018-09-17T23:21:46.660Z,16.20
2018-09-17T23:24:14.992Z,16.20
2018-09-17T23:26:43.379Z,16.10
2018-09-17T23:29:11.723Z,16.10
2018-09-17T23:31:40.257Z,16.00
2018-09-17T23:34:08.558Z,16.10
2018-09-17T23:36:36.856Z,16.00
2018-09-17T23:39:08.486Z,15.90
2018-09-17T23:41:37.057Z,15.80
2018-09-17T23:44:05.578Z,15.80
2018-09-17T23:46:34.275Z,15.80
2018-09-17T23:49:02.617Z,15.80
2018-09-17T23:51:30.994Z,15.70
2018-09-17T23:53:59.529Z,15.70
2018-09-17T23:56:27.833Z,15.70
2018-09-17T23:58:56.289Z,15.60
